Time;durP1;ratioP1;P1;durP2;ratioP2;P2;SDS_P1;SDS_P2;PMS_P1;PMS_P2;Temp;Humidity;BMP_temperature;BMP_pressure;BME280_temperature;BME280_humidity;BME280_pressure;Samples;Min_cycle;Max_cycle;Signal;HPM_P1;HPM_P2
2023/07/08 00:00:17;;;;;;;6.88;4.53;;;22.30;98.20;;;;;;5004595;28;20303;-71
2023/07/08 00:02:43;;;;;;;8.57;4.10;;;22.20;98.40;;;;;;5004531;28;20666;-71
2023/07/08 00:05:11;;;;;;;5.93;4.05;;;22.20;99.00;;;;;;5005234;28;20222;-71
2023/07/08 00:07:38;;;;;;;5.28;3.90;;;22.10;99.50;;;;;;5007068;28;20228;-71
2023/07/08 00:10:17;;;;;;;6.25;3.80;;;22.10;99.90;;;;;;5005858;28;20231;-71
2023/07/08 00:12:44;;;;;;;5.28;3.95;;;22.00;99.90;;;;;;4997901;28;20213;-71
2023/07/08 00:15:11;;;;;;;5.65;4.00;;;22.00;99.90;;;;;;5005441;28;20207;-71
2023/07/08 00:17:37;;;;;;;6.75;3.95;;;22.00;99.90;;;;;;4996237;28;20801;-71
2023/07/08 00:20:17;;;;;;;7.15;4.38;;;21.90;99.90;;;;;;5003671;28;20212;-71
2023/07/08 00:22:46;;;;;;;6.57;3.70;;;21.90;99.90;;;;;;5001867;28;20766;-70
2023/07/08 00:25:13;;;;;;;7.00;4.07;;;21.90;99.90;;;;;;5000399;28;20212;-71
2023/07/08 00:27:39;;;;;;;7.05;4.13;;;21.90;99.90;;;;;;5000088;28;20216;-71
2023/07/08 00:30:18;;;;;;;4.88;3.78;;;21.90;99.90;;;;;;5007372;28;20208;-71
2023/07/08 00:32:44;;;;;;;5.10;3.22;;;21.80;99.90;;;;;;5000087;28;20284;-70
2023/07/08 00:35:10;;;;;;;4.97;3.40;;;21.80;99.90;;;;;;5004559;28;20914;-70
2023/07/08 00:37:35;;;;;;;5.25;3.30;;;21.80;99.90;;;;;;5006734;28;20694;-71
2023/07/08 00:40:11;;;;;;;6.10;3.58;;;21.70;99.90;;;;;;4996275;28;20236;-71
2023/07/08 00:42:37;;;;;;;5.50;3.08;;;21.70;99.90;;;;;;4999096;28;20224;-71
2023/07/08 00:45:15;;;;;;;6.15;3.78;;;21.80;99.90;;;;;;5000461;28;20795;-71
2023/07/08 00:47:42;;;;;;;5.93;3.80;;;21.90;99.90;;;;;;5000642;28;20220;-71
2023/07/08 00:50:11;;;;;;;5.40;3.45;;;21.90;99.90;;;;;;4996698;28;20232;-71
2023/07/08 00:52:37;;;;;;;9.27;4.18;;;21.80;99.90;;;;;;5003138;28;20212;-70
2023/07/08 00:55:08;;;;;;;4.97;3.92;;;21.80;99.90;;;;;;5000879;28;20205;-70
2023/07/08 00:57:40;;;;;;;5.60;3.65;;;21.80;99.90;;;;;;5001405;28;20197;-71
2023/07/08 01:00:12;;;;;;;6.90;3.88;;;21.60;99.90;;;;;;5000842;28;20241;-69
2023/07/08 01:02:48;;;;;;;7.60;4.43;;;21.60;99.90;;;;;;4999727;28;20236;-70
2023/07/08 01:05:22;;;;;;;3.97;3.30;;;21.60;99.90;;;;;;5000551;28;20173;-70
2023/07/08 01:07:52;;;;;;;5.15;3.70;;;21.50;99.90;;;;;;5002594;28;20734;-70
2023/07/08 01:10:24;;;;;;;5.88;3.80;;;21.50;99.90;;;;;;4998611;28;20213;-70
2023/07/08 01:12:54;;;;;;;6.18;3.58;;;21.60;99.90;;;;;;5000209;28;20267;-70
2023/07/08 01:15:23;;;;;;;7.95;4.28;;;21.60;99.90;;;;;;5005964;28;20233;-70
2023/07/08 01:17:53;;;;;;;5.28;3.42;;;21.50;99.90;;;;;;4997033;28;20465;-71
2023/07/08 01:20:19;;;;;;;7.43;3.50;;;21.50;99.90;;;;;;5007404;28;20687;-71
2023/07/08 01:22:45;;;;;;;6.20;3.90;;;21.50;99.90;;;;;;4997944;28;20228;-71
2023/07/08 01:25:13;;;;;;;7.80;4.05;;;21.60;99.90;;;;;;5005648;28;20647;-70
2023/07/08 01:27:42;;;;;;;5.80;3.72;;;21.60;99.90;;;;;;4998981;28;20205;-71
2023/07/08 01:30:10;;;;;;;6.97;3.80;;;21.60;99.90;;;;;;5000522;28;20304;-70
2023/07/08 01:32:39;;;;;;;6.03;3.78;;;21.50;99.90;;;;;;5002665;28;20223;-70
2023/07/08 01:35:06;;;;;;;5.47;4.07;;;21.50;99.90;;;;;;5002970;28;20639;-70
2023/07/08 01:37:44;;;;;;;4.85;3.95;;;21.50;99.90;;;;;;4999544;28;20213;-71
2023/07/08 01:40:32;;;;;;;4.53;3.45;;;21.50;99.90;;;;;;4996173;28;20205;-70
2023/07/08 01:42:58;;;;;;;5.80;3.65;;;21.50;99.90;;;;;;5000771;28;20670;-71
2023/07/08 01:45:26;;;;;;;5.95;3.40;;;21.40;99.90;;;;;;5003645;28;20227;-70
2023/07/08 01:47:59;;;;;;;4.95;3.70;;;21.40;99.90;;;;;;5002352;28;20239;-70
2023/07/08 01:50:27;;;;;;;5.00;3.20;;;21.30;99.90;;;;;;5006926;28;20890;-71
2023/07/08 01:52:55;;;;;;;5.05;3.22;;;21.30;99.90;;;;;;5004202;28;20287;-70
2023/07/08 01:55:28;;;;;;;4.95;3.60;;;21.30;99.90;;;;;;5006502;28;20633;-69
2023/07/08 01:57:54;;;;;;;5.75;4.07;;;21.20;99.90;;;;;;4999058;28;20628;-70
2023/07/08 02:00:21;;;;;;;4.35;3.25;;;21.10;99.90;;;;;;5007308;28;20216;-70
2023/07/08 02:02:47;;;;;;;4.80;3.13;;;21.20;99.90;;;;;;5003183;28;20221;-71
2023/07/08 02:05:13;;;;;;;4.70;3.13;;;21.10;99.90;;;;;;5002746;28;20224;-70
2023/07/08 02:07:38;;;;;;;5.28;3.80;;;21.10;99.90;;;;;;5009249;28;20209;-71
2023/07/08 02:10:05;;;;;;;3.63;3.33;;;21.10;99.90;;;;;;5002631;28;20211;-71
2023/07/08 02:12:30;;;;;;;4.97;3.50;;;21.10;99.90;;;;;;5001996;28;20619;-68
2023/07/08 02:14:56;;;;;;;5.55;3.42;;;21.10;99.90;;;;;;5001353;28;20231;-71
2023/07/08 02:17:21;;;;;;;5.15;3.53;;;21.00;99.90;;;;;;5003857;28;20177;-71
2023/07/08 02:19:47;;;;;;;4.18;3.25;;;21.00;99.90;;;;;;5004153;28;20687;-70
2023/07/08 02:22:13;;;;;;;8.25;3.55;;;21.00;99.90;;;;;;5004245;28;20556;-70
2023/07/08 02:24:38;;;;;;;7.05;3.65;;;21.00;99.90;;;;;;5002262;28;20221;-72
2023/07/08 02:27:04;;;;;;;6.00;3.65;;;21.00;99.90;;;;;;5004308;28;20197;-69
2023/07/08 02:29:31;;;;;;;4.80;3.63;;;21.00;99.90;;;;;;5000344;28;20618;-72
2023/07/08 02:31:57;;;;;;;4.22;2.72;;;20.90;99.90;;;;;;4999822;28;20615;-70
2023/07/08 02:34:23;;;;;;;5.70;3.40;;;20.90;99.90;;;;;;5007108;28;20217;-68
2023/07/08 02:36:48;;;;;;;3.90;3.45;;;20.80;99.90;;;;;;5010492;28;20209;-71
2023/07/08 02:39:14;;;;;;;5.07;3.42;;;20.80;99.90;;;;;;5006648;28;20210;-70
2023/07/08 02:41:40;;;;;;;4.53;3.97;;;20.80;99.90;;;;;;5007546;28;20208;-71
2023/07/08 02:44:05;;;;;;;4.25;3.55;;;20.70;99.90;;;;;;5002019;28;20619;-71
2023/07/08 02:46:31;;;;;;;6.38;3.88;;;20.70;99.90;;;;;;5004433;28;20303;-70
2023/07/08 02:48:56;;;;;;;4.32;3.60;;;20.70;99.90;;;;;;5007770;28;20207;-70
2023/07/08 02:51:22;;;;;;;4.07;3.63;;;20.70;99.90;;;;;;5006921;28;20711;-70
2023/07/08 02:53:49;;;;;;;4.70;3.75;;;20.70;99.90;;;;;;5003599;28;20236;-71
2023/07/08 02:56:15;;;;;;;9.23;3.83;;;20.60;99.90;;;;;;5006594;28;20181;-70
2023/07/08 02:58:40;;;;;;;6.35;2.90;;;20.60;99.90;;;;;;4999380;28;20272;-71
2023/07/08 03:01:06;;;;;;;4.13;3.45;;;20.60;99.90;;;;;;5006093;28;20220;-71
2023/07/08 03:03:32;;;;;;;7.03;3.53;;;20.60;99.90;;;;;;5002988;28;20268;-69
2023/07/08 03:06:00;;;;;;;6.00;3.30;;;20.60;99.90;;;;;;5004349;28;20216;-71
2023/07/08 03:08:27;;;;;;;4.47;3.63;;;20.60;99.90;;;;;;5004426;28;20269;-70
2023/07/08 03:10:58;;;;;;;5.05;3.30;;;20.60;99.90;;;;;;5000724;28;20204;-69
2023/07/08 03:13:25;;;;;;;4.95;3.35;;;20.60;99.90;;;;;;5002498;28;20240;-70
2023/07/08 03:15:51;;;;;;;6.47;3.85;;;20.50;99.90;;;;;;4999386;28;20293;-71
2023/07/08 03:18:17;;;;;;;4.43;3.80;;;20.50;99.90;;;;;;5001273;28;20205;-71
2023/07/08 03:20:46;;;;;;;4.75;3.53;;;20.60;99.90;;;;;;5008249;28;20213;-70
2023/07/08 03:23:12;;;;;;;6.38;4.10;;;20.60;99.90;;;;;;5000012;28;20184;-70
2023/07/08 03:25:38;;;;;;;5.15;4.15;;;20.60;99.90;;;;;;5004130;28;20296;-70
2023/07/08 03:28:07;;;;;;;4.70;4.00;;;20.60;99.90;;;;;;5005900;28;20201;-70
2023/07/08 03:30:34;;;;;;;6.20;4.70;;;20.70;99.90;;;;;;5002566;28;20212;-68
2023/07/08 03:33:00;;;;;;;7.45;4.85;;;20.70;99.90;;;;;;5005426;28;20767;-71
2023/07/08 03:35:26;;;;;;;6.63;4.55;;;21.20;99.90;;;;;;5002879;28;20185;-70
2023/07/08 03:37:52;;;;;;;6.63;4.30;;;21.90;99.90;;;;;;4999832;28;20177;-71
2023/07/08 03:40:18;;;;;;;10.38;5.03;;;22.70;99.90;;;;;;5004200;28;20236;-71
2023/07/08 03:42:44;;;;;;;7.72;5.32;;;23.60;99.90;;;;;;4998216;28;20209;-71
2023/07/08 03:45:10;;;;;;;9.13;5.80;;;23.90;99.90;;;;;;5003389;28;20224;-70
2023/07/08 03:47:36;;;;;;;7.85;6.32;;;24.30;99.90;;;;;;4996898;28;20220;-70
2023/07/08 03:50:02;;;;;;;7.03;5.20;;;25.10;99.90;;;;;;5003027;28;20194;-70
2023/07/08 03:52:27;;;;;;;6.72;5.53;;;25.30;99.90;;;;;;4999014;28;20209;-71
2023/07/08 03:54:53;;;;;;;8.40;5.45;;;24.80;99.90;;;;;;5000983;28;20209;-71
2023/07/08 03:57:19;;;;;;;5.68;5.03;;;24.90;99.90;;;;;;5009157;28;20204;-70
2023/07/08 03:59:44;;;;;;;7.57;5.00;;;25.00;99.90;;;;;;5007308;28;20227;-71
2023/07/08 04:02:11;;;;;;;8.07;4.80;;;25.30;99.90;;;;;;5007917;28;20201;-70
2023/07/08 04:04:37;;;;;;;5.75;4.82;;;25.80;99.90;;;;;;5007118;28;20256;-71
2023/07/08 04:07:06;;;;;;;7.45;5.05;;;26.80;99.90;;;;;;5006884;28;20220;-71
2023/07/08 04:09:32;;;;;;;9.52;5.53;;;28.10;99.90;;;;;;5003289;28;20681;-71
2023/07/08 04:11:59;;;;;;;6.68;5.53;;;28.50;99.90;;;;;;5005710;28;20208;-71
2023/07/08 04:14:25;;;;;;;7.97;5.68;;;29.10;99.90;;;;;;5002475;28;20197;-71
2023/07/08 04:16:57;;;;;;;7.38;4.93;;;29.90;99.90;;;;;;5002504;28;20566;-71
2023/07/08 04:19:24;;;;;;;9.68;5.50;;;30.50;98.40;;;;;;5001559;28;20593;-68
2023/07/08 04:21:50;;;;;;;6.47;5.22;;;31.10;96.60;;;;;;5002313;28;20746;-71
2023/07/08 04:24:17;;;;;;;8.02;5.63;;;31.50;95.60;;;;;;5002639;28;20208;-71
2023/07/08 04:26:46;;;;;;;6.07;4.97;;;31.90;94.10;;;;;;4999679;28;20206;-71
2023/07/08 04:29:17;;;;;;;8.60;5.45;;;31.80;93.40;;;;;;5001567;28;20651;-70
2023/07/08 04:31:43;;;;;;;6.05;5.10;;;32.00;92.50;;;;;;4999835;28;20174;-71
2023/07/08 04:34:09;;;;;;;8.05;5.22;;;32.30;91.70;;;;;;5004512;28;20212;-71
2023/07/08 04:36:35;;;;;;;7.03;4.82;;;32.70;90.70;;;;;;5008007;28;20215;-69
2023/07/08 04:39:03;;;;;;;7.38;5.25;;;32.70;90.30;;;;;;5006239;28;20212;-69
2023/07/08 04:41:29;;;;;;;7.68;5.05;;;33.00;89.90;;;;;;5004058;28;20172;-70
2023/07/08 04:43:57;;;;;;;6.57;4.70;;;33.50;88.30;;;;;;5001876;28;20681;-70
2023/07/08 04:46:54;;;;;;;8.30;4.68;;;34.20;83.80;;;;;;5004040;28;20339;-68
2023/07/08 04:49:20;;;;;;;5.25;4.57;;;34.40;81.70;;;;;;4987746;28;20566;-70
2023/07/08 04:51:46;;;;;;;6.07;4.10;;;34.80;82.00;;;;;;4999839;28;20271;-70
2023/07/08 04:54:12;;;;;;;7.50;5.18;;;34.80;80.50;;;;;;4997759;28;20303;-70
2023/07/08 04:56:44;;;;;;;5.55;4.35;;;35.50;78.10;;;;;;5000476;28;20221;-70
2023/07/08 04:59:22;;;;;;;5.30;4.80;;;35.80;75.60;;;;;;5000783;28;20208;-71
2023/07/08 05:01:48;;;;;;;5.97;4.47;;;35.70;73.70;;;;;;4999241;28;20311;-70
2023/07/08 05:04:16;;;;;;;5.72;4.50;;;35.90;72.90;;;;;;5000568;28;20335;-70
2023/07/08 05:06:42;;;;;;;4.90;4.18;;;35.70;70.60;;;;;;4997278;28;20233;-70
2023/07/08 05:09:08;;;;;;;5.18;4.68;;;36.10;70.90;;;;;;5004007;28;20274;-70
2023/07/08 05:11:35;;;;;;;4.75;4.35;;;36.20;70.30;;;;;;4997161;28;20213;-70
2023/07/08 05:14:02;;;;;;;4.63;4.22;;;35.60;69.80;;;;;;4998235;28;20215;-70
2023/07/08 05:16:28;;;;;;;4.55;4.15;;;36.30;69.60;;;;;;5000374;28;20208;-70
2023/07/08 05:18:54;;;;;;;6.57;5.97;;;36.40;67.80;;;;;;4996767;28;20661;-70
2023/07/08 05:21:20;;;;;;;4.18;3.85;;;36.40;66.80;;;;;;4999247;28;20209;-70
2023/07/08 05:23:49;;;;;;;4.20;3.80;;;36.10;67.10;;;;;;5000950;28;20246;-71
2023/07/08 05:26:15;;;;;;;4.97;3.70;;;36.40;67.80;;;;;;4999630;28;20192;-71
2023/07/08 05:28:43;;;;;;;5.15;4.03;;;36.10;67.50;;;;;;4999974;28;20181;-71
2023/07/08 05:31:09;;;;;;;4.22;3.83;;;36.80;67.10;;;;;;4995608;28;20579;-71
2023/07/08 05:33:35;;;;;;;4.65;3.53;;;36.40;67.00;;;;;;5000702;28;20215;-71
2023/07/08 05:36:00;;;;;;;7.25;4.00;;;36.80;65.80;;;;;;5001627;28;20204;-71
2023/07/08 05:38:27;;;;;;;4.20;3.80;;;36.90;65.30;;;;;;4998877;28;20259;-71
2023/07/08 05:40:57;;;;;;;5.55;3.50;;;37.10;65.30;;;;;;4996436;28;20209;-71
2023/07/08 05:43:24;;;;;;;4.25;3.67;;;37.30;65.40;;;;;;5001573;28;20266;-68
2023/07/08 05:45:50;;;;;;;4.40;3.85;;;37.10;65.00;;;;;;4998492;28;20566;-71
2023/07/08 05:48:15;;;;;;;4.10;3.65;;;37.30;64.50;;;;;;4999261;28;20216;-71
2023/07/08 05:50:41;;;;;;;4.68;4.22;;;37.80;61.60;;;;;;4996955;28;20213;-71
2023/07/08 05:53:10;;;;;;;5.50;3.72;;;37.60;61.60;;;;;;4997148;28;20204;-71
2023/07/08 05:55:36;;;;;;;4.55;3.30;;;36.30;63.20;;;;;;5004297;28;21059;-70
2023/07/08 05:58:02;;;;;;;5.03;3.70;;;36.20;64.40;;;;;;4996740;28;20208;-71
2023/07/08 06:00:28;;;;;;;4.13;3.72;;;36.40;64.00;;;;;;4995625;28;20224;-71
2023/07/08 06:02:54;;;;;;;6.15;3.53;;;36.80;64.00;;;;;;4996858;28;20320;-71
2023/07/08 06:05:19;;;;;;;4.88;3.30;;;36.40;63.30;;;;;;4999856;28;20209;-71
2023/07/08 06:07:45;;;;;;;6.15;3.63;;;37.00;62.30;;;;;;4998233;28;20181;-67
2023/07/08 06:10:11;;;;;;;3.80;3.40;;;36.40;63.60;;;;;;5000167;28;20213;-71
2023/07/08 06:12:36;;;;;;;4.40;3.78;;;36.70;63.70;;;;;;4999783;28;20210;-71
2023/07/08 06:15:02;;;;;;;4.53;3.60;;;36.90;62.80;;;;;;4998344;28;20213;-71
2023/07/08 06:17:28;;;;;;;4.20;3.78;;;37.50;62.60;;;;;;4998866;28;20263;-72
2023/07/08 06:19:53;;;;;;;4.90;3.88;;;37.70;61.00;;;;;;4997882;28;20695;-71
2023/07/08 06:22:19;;;;;;;6.10;3.55;;;38.00;60.10;;;;;;5001126;28;20232;-71
2023/07/08 06:24:46;;;;;;;3.88;3.47;;;38.20;60.00;;;;;;4998390;28;20219;-71
2023/07/08 06:27:12;;;;;;;4.70;3.13;;;38.90;59.70;;;;;;5000902;28;20267;-71
2023/07/08 06:29:37;;;;;;;4.00;3.50;;;38.20;59.60;;;;;;4996457;28;20693;-72
2023/07/08 06:32:03;;;;;;;5.10;3.60;;;38.80;59.30;;;;;;4999275;28;20187;-71
2023/07/08 06:34:29;;;;;;;4.03;3.63;;;36.80;59.50;;;;;;4999673;28;20279;-71
2023/07/08 06:36:55;;;;;;;5.22;3.78;;;37.30;60.60;;;;;;5000773;28;20251;-71
2023/07/08 06:39:20;;;;;;;4.70;3.80;;;38.20;60.10;;;;;;5002024;28;20216;-71
2023/07/08 06:41:46;;;;;;;3.97;3.50;;;38.50;59.90;;;;;;5001487;28;20310;-71
2023/07/08 06:44:11;;;;;;;4.32;3.30;;;37.60;59.10;;;;;;5005223;28;20944;-70
2023/07/08 06:46:37;;;;;;;6.20;3.65;;;37.70;59.70;;;;;;5002462;28;20724;-71
2023/07/08 06:49:03;;;;;;;7.22;5.10;;;38.40;59.40;;;;;;5002930;28;20231;-71
2023/07/08 06:51:29;;;;;;;3.55;3.15;;;39.10;57.50;;;;;;5007366;28;20587;-71
2023/07/08 06:53:54;;;;;;;6.13;3.30;;;37.30;56.90;;;;;;4999917;28;20307;-71
2023/07/08 06:56:20;;;;;;;3.95;3.10;;;37.40;59.20;;;;;;5003291;28;20234;-71
2023/07/08 06:58:46;;;;;;;5.88;3.75;;;38.10;57.70;;;;;;4999696;28;20671;-72
2023/07/08 07:01:12;;;;;;;4.80;3.58;;;38.20;58.30;;;;;;5002737;28;20982;-72
2023/07/08 07:03:38;;;;;;;5.63;3.88;;;39.30;58.90;;;;;;5000031;28;20248;-72
2023/07/08 07:06:04;;;;;;;5.00;3.33;;;39.60;57.60;;;;;;4998752;28;20704;-72
2023/07/08 07:08:29;;;;;;;5.65;4.25;;;40.60;57.10;;;;;;5003320;28;20186;-72
2023/07/08 07:10:55;;;;;;;4.35;4.05;;;40.90;56.00;;;;;;5001667;28;20201;-72
2023/07/08 07:13:20;;;;;;;4.20;3.90;;;40.70;55.90;;;;;;5009019;28;20631;-72
2023/07/08 07:15:48;;;;;;;4.53;4.13;;;40.90;55.70;;;;;;5009036;28;20299;-71
2023/07/08 07:18:14;;;;;;;3.90;3.60;;;41.00;55.00;;;;;;5000592;28;20209;-72
2023/07/08 07:20:52;;;;;;;4.50;3.88;;;40.70;55.40;;;;;;5001537;28;20319;-71
2023/07/08 07:23:18;;;;;;;4.90;3.50;;;40.90;55.20;;;;;;5004661;28;20192;-72
2023/07/08 07:25:47;;;;;;;5.95;3.92;;;40.80;55.30;;;;;;5005106;28;21029;-71
2023/07/08 07:28:13;;;;;;;7.43;3.50;;;41.30;55.50;;;;;;5001077;28;20217;-71
2023/07/08 07:30:38;;;;;;;4.18;3.80;;;40.80;55.60;;;;;;5000967;28;20863;-72
2023/07/08 07:33:04;;;;;;;5.65;5.15;;;41.40;55.70;;;;;;5000419;28;20217;-69
2023/07/08 07:35:30;;;;;;;3.88;3.55;;;40.80;53.90;;;;;;5001848;28;20169;-72
2023/07/08 07:37:55;;;;;;;6.72;6.13;;;40.40;55.40;;;;;;5001778;28;20181;-71
2023/07/08 07:40:21;;;;;;;4.68;4.28;;;41.20;54.30;;;;;;5002084;28;20204;-71
2023/07/08 07:42:46;;;;;;;4.53;3.80;;;40.70;54.40;;;;;;5000515;28;20208;-72
2023/07/08 07:45:13;;;;;;;4.05;3.60;;;39.60;54.30;;;;;;5002525;28;20263;-72
2023/07/08 07:47:39;;;;;;;4.50;3.95;;;40.50;54.50;;;;;;4999482;28;20215;-71
2023/07/08 07:50:06;;;;;;;4.00;3.60;;;38.70;54.90;;;;;;5002203;28;20204;-71
2023/07/08 07:52:33;;;;;;;3.88;3.55;;;39.30;55.80;;;;;;5005746;28;20465;-71
2023/07/08 07:54:58;;;;;;;4.28;3.88;;;40.60;55.30;;;;;;5006329;28;20271;-71
2023/07/08 07:57:24;;;;;;;4.47;4.03;;;40.20;53.30;;;;;;5004305;28;20217;-70
2023/07/08 07:59:50;;;;;;;4.00;3.60;;;39.40;54.90;;;;;;4999739;28;20224;-72
2023/07/08 08:02:17;;;;;;;4.22;3.63;;;39.30;55.60;;;;;;5000238;28;20555;-71
2023/07/08 08:04:42;;;;;;;3.75;3.38;;;39.60;54.50;;;;;;5004009;28;20181;-71
2023/07/08 08:07:09;;;;;;;4.57;3.72;;;39.60;55.20;;;;;;4999952;28;20650;-71
2023/07/08 08:09:35;;;;;;;5.45;3.92;;;40.20;55.40;;;;;;4998499;28;20208;-72
2023/07/08 08:12:02;;;;;;;5.78;5.07;;;40.90;54.70;;;;;;4998390;28;20213;-72
2023/07/08 08:14:28;;;;;;;4.32;3.80;;;41.10;53.70;;;;;;5004966;28;20204;-70
2023/07/08 08:16:54;;;;;;;3.70;3.40;;;41.00;53.80;;;;;;5000981;28;20181;-72
2023/07/08 08:19:19;;;;;;;7.53;4.68;;;41.00;54.10;;;;;;5001725;28;20734;-72
2023/07/08 08:21:45;;;;;;;4.57;4.18;;;41.00;54.10;;;;;;4998060;28;20609;-70
2023/07/08 08:24:10;;;;;;;4.40;4.00;;;41.40;53.90;;;;;;5001541;28;20868;-72
2023/07/08 08:26:36;;;;;;;6.55;5.95;;;41.70;55.00;;;;;;5004342;28;20213;-71
2023/07/08 08:29:02;;;;;;;4.30;3.90;;;40.10;53.30;;;;;;5000153;28;20538;-71
2023/07/08 08:31:28;;;;;;;9.35;3.88;;;38.80;55.10;;;;;;5005933;28;20212;-72
2023/07/08 08:33:53;;;;;;;4.15;3.72;;;39.80;55.50;;;;;;4998016;28;20230;-72
2023/07/08 08:36:20;;;;;;;6.82;3.63;;;39.90;56.50;;;;;;5003408;28;20343;-72
2023/07/08 08:38:46;;;;;;;4.95;3.88;;;40.00;57.00;;;;;;5004467;28;20699;-72
2023/07/08 08:41:14;;;;;;;4.32;3.90;;;40.20;54.90;;;;;;5004570;28;20177;-72
2023/07/08 08:43:42;;;;;;;3.72;3.25;;;40.00;54.70;;;;;;5001574;28;20984;-71
2023/07/08 08:46:49;;;;;;;5.28;4.82;;;39.30;56.20;;;;;;5002811;28;20212;-71
2023/07/08 08:49:20;;;;;;;3.40;3.10;;;39.80;55.70;;;;;;4996936;28;20232;-70
2023/07/08 08:51:47;;;;;;;4.38;3.60;;;40.00;55.50;;;;;;4998540;28;20727;-71
2023/07/08 08:54:13;;;;;;;3.53;3.22;;;40.50;54.50;;;;;;4999918;28;20217;-72
2023/07/08 08:57:12;;;;;;;3.92;3.55;;;38.80;56.00;;;;;;4999121;28;20208;-72
2023/07/08 08:59:44;;;;;;;4.80;3.35;;;38.50;57.50;;;;;;5000048;28;20247;-71
2023/07/08 09:02:40;;;;;;;3.22;2.97;;;39.40;56.10;;;;;;5000396;28;20191;-72
2023/07/08 09:05:09;;;;;;;4.03;2.75;;;39.30;55.50;;;;;;5000679;28;20584;-71
2023/07/08 09:08:18;;;;;;;3.38;3.08;;;39.50;53.80;;;;;;5001371;28;20239;-71
2023/07/08 09:10:50;;;;;;;4.07;3.40;;;39.70;53.60;;;;;;4998626;28;20255;-71
2023/07/08 09:13:25;;;;;;;7.40;6.07;;;40.00;54.30;;;;;;5004077;28;20219;-72
2023/07/08 09:16:11;;;;;;;8.35;7.05;;;39.50;53.30;;;;;;4999060;28;20298;-72
2023/07/08 09:19:01;;;;;;;4.00;3.70;;;39.90;54.30;;;;;;5000823;28;20197;-71
2023/07/08 09:21:33;;;;;;;10.27;6.78;;;39.70;52.20;;;;;;5014105;28;20215;-71
2023/07/08 09:24:04;;;;;;;3.72;2.67;;;39.50;52.30;;;;;;4999357;28;20217;-71
2023/07/08 09:26:32;;;;;;;3.78;2.30;;;39.30;50.70;;;;;;4998092;28;20180;-70
2023/07/08 09:28:58;;;;;;;3.60;3.30;;;38.90;50.10;;;;;;4996978;28;20181;-70
2023/07/08 09:31:29;;;;;;;3.65;2.50;;;37.10;51.80;;;;;;5002612;28;20231;-69
2023/07/08 09:34:14;;;;;;;5.22;3.05;;;37.10;51.10;;;;;;5009417;28;20218;-71
2023/07/08 09:36:46;;;;;;;2.65;2.45;;;37.00;53.60;;;;;;4999340;28;20698;-71
2023/07/08 09:39:14;;;;;;;3.20;2.90;;;37.30;53.70;;;;;;4999164;28;20213;-71
2023/07/08 09:41:41;;;;;;;3.95;3.40;;;37.00;53.70;;;;;;4997694;28;20686;-71
2023/07/08 09:44:15;;;;;;;5.90;3.65;;;36.80;54.40;;;;;;5004137;28;20260;-71
2023/07/08 09:46:41;;;;;;;3.83;3.08;;;36.40;54.80;;;;;;4997910;28;20209;-71
2023/07/08 09:49:23;;;;;;;4.78;3.58;;;35.30;55.10;;;;;;4998924;28;20221;-71
2023/07/08 09:51:50;;;;;;;3.88;2.70;;;35.30;55.80;;;;;;4996451;28;20221;-71
2023/07/08 09:54:17;;;;;;;5.20;3.65;;;35.00;55.40;;;;;;5000388;28;20647;-71
2023/07/08 09:56:48;;;;;;;2.90;2.67;;;34.30;55.90;;;;;;5007369;28;20217;-71
2023/07/08 09:59:15;;;;;;;4.15;2.70;;;33.70;56.10;;;;;;4996924;28;20209;-71
2023/07/08 10:01:42;;;;;;;4.05;2.53;;;33.60;56.30;;;;;;5000292;28;20174;-71
2023/07/08 10:04:08;;;;;;;6.43;3.53;;;33.30;57.50;;;;;;4996974;28;20241;-71
2023/07/08 10:06:35;;;;;;;3.85;3.10;;;32.80;57.10;;;;;;5002099;28;20232;-70
2023/07/08 10:09:13;;;;;;;7.30;3.35;;;33.10;57.50;;;;;;5000621;28;20785;-71
2023/07/08 10:11:50;;;;;;;5.78;4.53;;;33.30;57.40;;;;;;5002383;28;20242;-71
2023/07/08 10:14:16;;;;;;;3.17;2.60;;;33.90;57.90;;;;;;5004465;28;20212;-71
2023/07/08 10:16:42;;;;;;;3.60;2.67;;;34.50;56.70;;;;;;5002793;28;20494;-72
2023/07/08 10:19:19;;;;;;;6.35;2.70;;;34.30;54.90;;;;;;5001809;28;20210;-72
2023/07/08 10:21:50;;;;;;;4.47;2.70;;;34.70;56.60;;;;;;5003916;28;20256;-72
2023/07/08 10:24:43;;;;;;;3.28;2.83;;;35.10;57.00;;;;;;4999009;28;20700;-71
2023/07/08 10:27:27;;;;;;;3.35;2.80;;;34.70;55.10;;;;;;5000762;28;20241;-71
2023/07/08 10:30:02;;;;;;;2.97;2.58;;;34.10;56.20;;;;;;5001457;28;20787;-72
2023/07/08 10:32:44;;;;;;;2.65;2.40;;;34.40;56.30;;;;;;5002389;28;20677;-71
2023/07/08 10:35:15;;;;;;;3.47;3.00;;;34.80;56.60;;;;;;5007829;28;20185;-70
2023/07/08 10:37:53;;;;;;;3.22;2.75;;;34.70;55.80;;;;;;4999531;28;20615;-70
2023/07/08 10:40:25;;;;;;;5.15;2.83;;;34.10;56.20;;;;;;5004901;28;20229;-70
2023/07/08 10:43:13;;;;;;;11.13;7.65;;;33.90;56.60;;;;;;5004427;28;20217;-71
2023/07/08 10:46:03;;;;;;;3.85;2.90;;;34.20;57.50;;;;;;4996947;28;20206;-71
2023/07/08 10:49:00;;;;;;;3.17;2.80;;;34.40;57.20;;;;;;5003095;28;20205;-70
2023/07/08 10:51:32;;;;;;;7.25;4.63;;;34.80;57.40;;;;;;4998897;28;20205;-70
2023/07/08 10:54:23;;;;;;;4.53;4.10;;;35.00;56.90;;;;;;5001674;28;20231;-71
2023/07/08 10:56:58;;;;;;;3.53;3.20;;;35.00;56.40;;;;;;5003729;28;20228;-71
2023/07/08 10:59:52;;;;;;;3.83;3.47;;;35.00;56.70;;;;;;5001905;28;20220;-71
2023/07/08 11:02:38;;;;;;;5.20;2.97;;;35.00;56.90;;;;;;5002659;28;20323;-70
2023/07/08 11:05:25;;;;;;;6.75;2.58;;;34.80;55.50;;;;;;5001729;28;20210;-71
2023/07/08 11:08:08;;;;;;;4.80;2.90;;;34.50;55.60;;;;;;5004419;28;20259;-71
2023/07/08 11:10:43;;;;;;;3.38;2.90;;;34.50;56.30;;;;;;5006988;28;20355;-70
2023/07/08 11:13:20;;;;;;;4.05;2.72;;;34.40;56.70;;;;;;5004103;28;20216;-72
2023/07/08 11:15:52;;;;;;;3.67;3.13;;;34.40;55.70;;;;;;4999895;28;20220;-71
2023/07/08 11:18:42;;;;;;;2.83;2.55;;;34.20;55.40;;;;;;4998468;28;20213;-71
2023/07/08 11:21:31;;;;;;;3.83;2.70;;;33.90;55.80;;;;;;5010852;28;20264;-71
2023/07/08 11:24:00;;;;;;;3.03;2.70;;;34.10;56.20;;;;;;5003184;28;20235;-71
2023/07/08 11:27:00;;;;;;;3.55;2.80;;;34.30;55.50;;;;;;5002037;28;20170;-71
2023/07/08 11:29:40;;;;;;;3.88;2.63;;;34.20;55.40;;;;;;5005077;28;20193;-70
2023/07/08 11:32:12;;;;;;;4.85;3.85;;;34.10;55.90;;;;;;5001509;28;20185;-72
2023/07/08 11:34:39;;;;;;;5.07;3.67;;;33.90;56.40;;;;;;5013266;28;20225;-71
2023/07/08 11:37:05;;;;;;;3.63;2.85;;;33.70;57.10;;;;;;5002760;28;20209;-71
2023/07/08 11:39:45;;;;;;;2.95;2.53;;;33.70;56.30;;;;;;5004600;28;20287;-72
2023/07/08 11:42:42;;;;;;;3.30;2.72;;;33.60;57.70;;;;;;5000662;28;20321;-70
2023/07/08 11:45:16;;;;;;;3.47;2.80;;;33.70;57.00;;;;;;5015886;28;20221;-71
2023/07/08 11:47:46;;;;;;;4.07;3.22;;;33.90;57.10;;;;;;5004755;28;20219;-71
2023/07/08 11:50:21;;;;;;;4.35;3.05;;;33.60;56.10;;;;;;5001477;28;20745;-71
2023/07/08 11:53:00;;;;;;;3.10;2.80;;;33.50;56.90;;;;;;4998955;28;20293;-72
2023/07/08 11:55:36;;;;;;;5.40;3.28;;;33.70;57.00;;;;;;5001534;28;20216;-71
2023/07/08 11:58:05;;;;;;;3.53;3.05;;;33.90;57.00;;;;;;4998589;28;20215;-71
2023/07/08 12:00:33;;;;;;;3.63;3.13;;;32.80;56.90;;;;;;5001567;28;20577;-71
2023/07/08 12:03:16;;;;;;;3.20;2.88;;;32.20;57.60;;;;;;5007244;28;20213;-71
2023/07/08 12:05:42;;;;;;;3.33;2.83;;;31.90;58.40;;;;;;5002758;28;20224;-71
2023/07/08 12:08:17;;;;;;;3.33;3.03;;;31.80;58.50;;;;;;5000268;28;20189;-72
2023/07/08 12:10:47;;;;;;;3.65;2.80;;;31.60;58.60;;;;;;5014501;28;20590;-72
2023/07/08 12:13:15;;;;;;;3.35;2.92;;;31.70;58.20;;;;;;5003916;28;20713;-72
2023/07/08 12:15:41;;;;;;;6.40;3.35;;;31.30;58.30;;;;;;5005337;28;20674;-71
2023/07/08 12:18:16;;;;;;;3.95;2.92;;;31.40;59.90;;;;;;4999093;28;20214;-72
2023/07/08 12:20:54;;;;;;;4.07;3.22;;;31.70;58.80;;;;;;5004076;28;20212;-72
2023/07/08 12:23:25;;;;;;;6.68;3.67;;;32.10;59.00;;;;;;5007457;28;20181;-72
2023/07/08 12:25:52;;;;;;;3.30;3.00;;;32.20;58.10;;;;;;4998912;28;20173;-72
2023/07/08 12:28:19;;;;;;;4.63;3.53;;;32.10;57.80;;;;;;5000534;28;20213;-72
2023/07/08 12:30:46;;;;;;;4.82;3.60;;;31.80;58.10;;;;;;4998044;28;20218;-72
2023/07/08 12:33:16;;;;;;;4.35;3.53;;;31.70;58.20;;;;;;5000959;28;20209;-71
2023/07/08 12:35:42;;;;;;;5.95;3.40;;;31.50;58.30;;;;;;5005569;28;20243;-72
2023/07/08 12:38:32;;;;;;;4.57;3.25;;;31.30;58.40;;;;;;5001267;28;20694;-70
2023/07/08 12:41:00;;;;;;;5.32;4.18;;;31.20;59.00;;;;;;4999116;28;20213;-71
2023/07/08 12:43:26;;;;;;;3.50;2.92;;;31.50;59.40;;;;;;5002692;28;20623;-71
2023/07/08 12:45:52;;;;;;;5.80;3.25;;;31.70;59.00;;;;;;5004404;28;20217;-69
2023/07/08 12:48:18;;;;;;;4.25;3.55;;;31.80;58.80;;;;;;5001014;28;20217;-70
2023/07/08 12:50:43;;;;;;;6.05;3.67;;;31.90;59.10;;;;;;5000125;28;20235;-70
2023/07/08 12:53:12;;;;;;;4.00;3.60;;;32.10;59.40;;;;;;4998960;28;20244;-70
2023/07/08 12:55:41;;;;;;;3.80;3.30;;;32.20;58.30;;;;;;5000668;28;20685;-70
2023/07/08 12:58:12;;;;;;;6.30;3.95;;;32.30;58.30;;;;;;4997893;28;20582;-69